createdAt,value
2023-02-24T00:02:01.651Z,99378.22
2023-02-24T00:06:11.912Z,99385.13
2023-02-24T00:10:19.408Z,99380.22
2023-02-24T00:14:21.691Z,99385.13
2023-02-24T00:18:23.468Z,99370.72
2023-02-24T00:22:25.569Z,99365.28
2023-02-24T00:26:29.654Z,99372.84
2023-02-24T00:30:33.117Z,99365.53
2023-02-24T00:34:36.529Z,99372.59
2023-02-24T00:38:39.503Z,99360.31
2023-02-24T00:42:42.705Z,99374.69
2023-02-24T00:46:45.783Z,99357.81
2023-02-24T00:50:47.521Z,99363.75
2023-02-24T00:54:52.384Z,99364.69
2023-02-24T00:58:55.726Z,99356.59
2023-02-24T01:02:59.434Z,99362.75
2023-02-24T01:07:01.822Z,99352.09
2023-02-24T01:11:22.823Z,99353.28
2023-02-24T01:15:25.070Z,99351.78
2023-02-24T01:19:31.924Z,99343.09
2023-02-24T01:23:33.748Z,99338.97
2023-02-24T01:27:40.303Z,99347.38
2023-02-24T01:31:44.004Z,99345.94
2023-02-24T01:35:46.124Z,99330.34
2023-02-24T01:39:48.501Z,99327.69
2023-02-24T01:44:03.554Z,99316.88
2023-02-24T01:48:07.751Z,99312.75
2023-02-24T01:52:18.037Z,99312.63
2023-02-24T01:56:20.223Z,99306.44
2023-02-24T02:00:38.279Z,99307.94
2023-02-24T02:04:53.753Z,99296.19
2023-02-24T02:08:55.512Z,99297.81
2023-02-24T02:12:57.409Z,99288.78
2023-02-24T02:17:31.855Z,99281.53
2023-02-24T02:22:02.880Z,99275.78
2023-02-24T02:26:28.185Z,99272.38
2023-02-24T02:31:12.844Z,99271.84
2023-02-24T02:35:31.719Z,99270.50
2023-02-24T02:40:21.152Z,99274.84
2023-02-24T02:44:47.589Z,99247.81
2023-02-24T02:48:58.367Z,99265.28
2023-02-24T02:53:03.601Z,99261.06
2023-02-24T02:57:12.095Z,99265.78
2023-02-24T03:01:18.714Z,99254.41
2023-02-24T03:05:38.465Z,99255.72
2023-02-24T03:09:49.399Z,99253.53
2023-02-24T03:14:00.366Z,99262.44
2023-02-24T03:18:16.413Z,99270.31
2023-02-24T03:22:31.407Z,99264.72
2023-02-24T03:27:07.406Z,99285.53
2023-02-24T03:31:38.298Z,99289.16
2023-02-24T03:35:42.109Z,99278.34
2023-02-24T03:39:47.100Z,99278.06
2023-02-24T03:43:50.134Z,99289.00
2023-02-24T03:47:54.198Z,99273.09
2023-02-24T03:52:21.622Z,99281.28
2023-02-24T03:56:40.514Z,99300.09
2023-02-24T04:00:58.676Z,99297.06
2023-02-24T04:05:16.318Z,99287.81
2023-02-24T04:09:59.272Z,99283.94
2023-02-24T04:14:06.629Z,99286.81
2023-02-24T04:18:15.371Z,99280.56
2023-02-24T04:22:19.920Z,99268.03
2023-02-24T04:26:21.725Z,99264.75
2023-02-24T04:30:25.338Z,99241.66
2023-02-24T04:34:32.478Z,99229.28
2023-02-24T04:38:35.045Z,99214.88
2023-02-24T04:42:46.490Z,99210.91
2023-02-24T04:46:51.884Z,99199.53
2023-02-24T04:50:55.320Z,99200.97
2023-02-24T04:54:58.442Z,99191.31
2023-02-24T04:59:00.255Z,99189.13
2023-02-24T05:03:06.003Z,99186.59
2023-02-24T05:07:07.888Z,99175.81
2023-02-24T05:11:16.628Z,99172.44
2023-02-24T05:15:18.483Z,99174.97
2023-02-24T05:19:39.018Z,99161.00
2023-02-24T05:23:44.566Z,99163.78
2023-02-24T05:27:47.364Z,99158.56
2023-02-24T05:31:49.142Z,99172.31
2023-02-24T05:35:51.110Z,99167.13
2023-02-24T05:40:01.480Z,99174.63
2023-02-24T05:44:09.335Z,99165.34
2023-02-24T05:48:14.970Z,99166.00
2023-02-24T05:52:17.381Z,99189.34
2023-02-24T05:56:19.290Z,99180.75
2023-02-24T06:00:25.847Z,99178.00
2023-02-24T06:04:47.943Z,99181.63
2023-02-24T06:08:50.141Z,99177.03
2023-02-24T06:12:54.519Z,99187.88
2023-02-24T06:16:57.039Z,99190.47
2023-02-24T06:21:03.323Z,99188.03
2023-02-24T06:25:05.695Z,99192.69
2023-02-24T06:29:07.879Z,99196.38
2023-02-24T06:33:10.684Z,99188.03
2023-02-24T06:37:14.403Z,99188.56
2023-02-24T06:41:16.463Z,99208.09
2023-02-24T06:45:18.322Z,99196.78
2023-02-24T06:49:20.251Z,99186.69
2023-02-24T06:53:21.994Z,99186.81
2023-02-24T06:57:23.958Z,99171.94
2023-02-24T07:01:28.289Z,99169.88
2023-02-24T07:05:34.381Z,99192.53
2023-02-24T07:09:37.530Z,99176.59
2023-02-24T07:13:40.314Z,99182.44
2023-02-24T07:17:43.275Z,99188.28
2023-02-24T07:21:50.214Z,99174.81
2023-02-24T07:25:53.670Z,99169.19
2023-02-24T07:29:55.514Z,99167.00
2023-02-24T07:33:57.464Z,99172.22
2023-02-24T07:38:02.150Z,99172.19
2023-02-24T07:42:04.207Z,99152.53
2023-02-24T07:46:14.364Z,99158.53
2023-02-24T07:50:18.603Z,99141.34
2023-02-24T07:54:21.353Z,99143.97
2023-02-24T07:58:28.550Z,99129.63
2023-02-24T08:02:30.397Z,99129.19
2023-02-24T08:06:48.110Z,99122.50
2023-02-24T08:10:49.978Z,99118.41
2023-02-24T08:14:53.292Z,99107.75
2023-02-24T08:18:57.861Z,99109.53
2023-02-24T08:22:59.684Z,99099.00
2023-02-24T08:27:07.788Z,99090.94
2023-02-24T08:35:35.223Z,99079.78
2023-02-24T08:39:40.037Z,99069.66
2023-02-24T08:43:42.239Z,99079.28
2023-02-24T08:47:48.125Z,99071.63
2023-02-24T08:51:52.894Z,99068.59
2023-02-24T08:55:54.771Z,99069.66
2023-02-24T08:59:59.550Z,99050.66
2023-02-24T09:04:10.994Z,99044.69
2023-02-24T09:08:12.975Z,99031.56
2023-02-24T09:12:22.229Z,99030.72
2023-02-24T09:16:25.159Z,99024.81
2023-02-24T09:20:27.278Z,99008.75
2023-02-24T09:24:33.632Z,99001.66
2023-02-24T09:28:48.876Z,98991.91
2023-02-24T09:32:51.077Z,98985.59
2023-02-24T09:37:03.612Z,98974.41
2023-02-24T09:41:53.734Z,98958.66
2023-02-24T09:46:16.484Z,98941.94
2023-02-24T09:50:51.525Z,98952.22
2023-02-24T09:55:08.428Z,98942.63
2023-02-24T09:59:26.457Z,98948.34
2023-02-24T10:03:42.430Z,98929.56
2023-02-24T10:07:46.274Z,98929.88
2023-02-24T10:11:56.612Z,98918.78
2023-02-24T10:16:06.156Z,98909.25
2023-02-24T10:20:31.236Z,98884.50
2023-02-24T10:24:49.713Z,98879.47
2023-02-24T10:29:02.754Z,98870.78
2023-02-24T10:33:05.446Z,98850.19
2023-02-24T10:37:28.112Z,98849.84
2023-02-24T10:41:30.298Z,98849.06
2023-02-24T10:45:34.695Z,98829.78
2023-02-24T10:49:59.610Z,98814.06
2023-02-24T10:54:55.255Z,98808.25
2023-02-24T10:59:32.691Z,98809.53
2023-02-24T11:03:43.868Z,98791.97
2023-02-24T11:07:53.800Z,98784.81
2023-02-24T11:13:04.241Z,98789.06
2023-02-24T11:17:37.280Z,98761.97
2023-02-24T11:21:39.504Z,98743.66
2023-02-24T11:25:45.991Z,98739.03
2023-02-24T11:30:21.705Z,98735.31
2023-02-24T11:34:53.233Z,98718.28
2023-02-24T11:39:29.263Z,98704.84
2023-02-24T11:43:33.559Z,98694.09
2023-02-24T11:47:50.664Z,98681.22
2023-02-24T11:51:52.774Z,98677.06
2023-02-24T11:56:10.821Z,98675.78
2023-02-24T12:00:28.040Z,98668.78
2023-02-24T12:04:32.785Z,98642.50
2023-02-24T12:08:38.611Z,98648.78
2023-02-24T12:13:11.300Z,98647.63
2023-02-24T12:17:23.784Z,98634.75
2023-02-24T12:21:39.451Z,98623.56
2023-02-24T12:26:19.444Z,98615.72
2023-02-24T12:30:49.024Z,98612.31
2023-02-24T12:35:08.506Z,98606.47
2023-02-24T12:39:17.946Z,98586.16
2023-02-24T12:43:35.576Z,98597.63
2023-02-24T12:48:08.073Z,98593.47
2023-02-24T12:52:24.935Z,98591.19
2023-02-24T12:56:48.226Z,98570.88
2023-02-24T13:01:09.388Z,98557.72
2023-02-24T13:05:24.300Z,98546.38
2023-02-24T13:10:01.011Z,98542.78
2023-02-24T13:14:27.621Z,98530.38
2023-02-24T13:18:37.110Z,98536.94
2023-02-24T13:22:42.170Z,98515.22
2023-02-24T13:26:46.878Z,98516.06
2023-02-24T13:31:04.582Z,98502.78
2023-02-24T13:35:26.776Z,98491.31
2023-02-24T13:39:37.567Z,98492.44
2023-02-24T13:43:41.591Z,98478.81
2023-02-24T13:48:20.182Z,98479.13
2023-02-24T13:52:36.277Z,98466.94
2023-02-24T13:56:55.521Z,98460.09
2023-02-24T14:01:17.157Z,98454.28
2023-02-24T14:05:35.046Z,98450.63
2023-02-24T14:09:44.933Z,98456.09
2023-02-24T14:13:51.510Z,98445.13
2023-02-24T14:18:04.785Z,98440.63
2023-02-24T14:22:17.630Z,98453.97
2023-02-24T14:26:25.378Z,98449.88
2023-02-24T14:30:39.354Z,98446.31
2023-02-24T14:34:41.109Z,98431.28
2023-02-24T14:38:44.276Z,98435.06
2023-02-24T14:42:51.506Z,98437.47
2023-02-24T14:46:59.377Z,98416.78
2023-02-24T14:51:32.937Z,98420.94
2023-02-24T14:55:42.073Z,98408.41
2023-02-24T14:59:54.703Z,98414.13
2023-02-24T15:03:59.902Z,98401.84
2023-02-24T15:08:05.106Z,98405.63
2023-02-24T15:12:31.469Z,98381.59
2023-02-24T15:16:45.745Z,98386.19
2023-02-24T15:20:47.720Z,98364.63
2023-02-24T15:25:16.595Z,98356.28
2023-02-24T15:29:27.724Z,98356.81
2023-02-24T15:33:38.363Z,98347.25
2023-02-24T15:37:43.536Z,98355.41
2023-02-24T15:41:47.516Z,98344.88
2023-02-24T15:45:49.448Z,98338.88
2023-02-24T15:49:51.570Z,98334.69
2023-02-24T15:53:53.842Z,98334.84
2023-02-24T15:58:09.104Z,98337.44
2023-02-24T16:02:25.164Z,98351.75
2023-02-24T16:06:27.491Z,98339.13
2023-02-24T16:10:42.060Z,98349.97
2023-02-24T16:14:44.397Z,98335.66
2023-02-24T16:18:57.418Z,98343.50
2023-02-24T16:23:01.970Z,98334.69
2023-02-24T16:27:04.225Z,98336.97
2023-02-24T16:31:08.840Z,98335.34
2023-02-24T16:35:12.296Z,98335.03
2023-02-24T16:39:19.523Z,98315.59
2023-02-24T16:43:24.834Z,98326.94
2023-02-24T16:47:26.915Z,98330.84
2023-02-24T16:51:31.627Z,98331.16
2023-02-24T16:55:34.321Z,98339.28
2023-02-24T16:59:36.928Z,98329.47
2023-02-24T17:03:48.245Z,98330.41
2023-02-24T17:07:56.383Z,98333.00
2023-02-24T17:12:03.419Z,98322.88
2023-02-24T17:16:10.194Z,98326.13
2023-02-24T17:20:17.263Z,98318.03
2023-02-24T17:24:41.243Z,98326.09
2023-02-24T17:28:43.438Z,98317.22
2023-02-24T17:32:46.670Z,98310.91
2023-02-24T17:36:51.978Z,98306.38
2023-02-24T17:40:55.907Z,98300.91
2023-02-24T17:45:01.296Z,98297.31
2023-02-24T17:49:09.084Z,98295.72
2023-02-24T17:53:13.029Z,98292.88
2023-02-24T17:57:15.174Z,98294.59
2023-02-24T18:01:17.338Z,98286.38
2023-02-24T18:05:24.125Z,98290.09
2023-02-24T18:09:28.614Z,98277.28
2023-02-24T18:13:35.606Z,98270.38
2023-02-24T18:17:38.186Z,98274.09
2023-02-24T18:21:42.467Z,98269.25
2023-02-24T18:25:45.215Z,98272.63
2023-02-24T18:29:47.073Z,98270.47
2023-02-24T18:33:50.124Z,98266.13
2023-02-24T18:37:58.738Z,98260.75
2023-02-24T18:42:00.751Z,98270.47
2023-02-24T18:46:07.290Z,98253.06
2023-02-24T18:50:10.503Z,98257.81
2023-02-24T18:54:12.440Z,98256.66
2023-02-24T18:58:14.886Z,98249.38
2023-02-24T19:02:25.159Z,98245.75
2023-02-24T19:06:32.630Z,98245.13
2023-02-24T19:10:37.250Z,98239.25
2023-02-24T19:14:42.934Z,98235.44
2023-02-24T19:19:30.923Z,98238.91
2023-02-24T19:23:36.714Z,98228.38
2023-02-24T19:27:40.916Z,98226.63
2023-02-24T19:31:43.337Z,98223.06
2023-02-24T19:35:45.594Z,98219.38
2023-02-24T19:39:49.088Z,98223.69
2023-02-24T19:43:56.692Z,98221.25
2023-02-24T19:48:02.712Z,98205.69
2023-02-24T19:52:04.676Z,98206.47
2023-02-24T19:56:07.019Z,98200.13
2023-02-24T20:00:16.949Z,98197.25
2023-02-24T20:04:22.110Z,98198.06
2023-02-24T20:08:26.079Z,98180.84
2023-02-24T20:12:27.939Z,98193.22
2023-02-24T20:16:34.630Z,98202.53
2023-02-24T20:20:41.697Z,98184.59
2023-02-24T20:24:51.985Z,98174.56
2023-02-24T20:28:58.897Z,98171.13
2023-02-24T20:33:06.076Z,98173.72
2023-02-24T20:37:11.781Z,98165.59
2023-02-24T20:41:21.925Z,98165.53
2023-02-24T20:45:25.655Z,98169.13
2023-02-24T20:49:27.788Z,98159.69
2023-02-24T20:53:33.165Z,98153.63
2023-02-24T20:57:35.429Z,98146.50
2023-02-24T21:01:41.390Z,98131.50
2023-02-24T21:05:46.830Z,98143.59
2023-02-24T21:09:51.986Z,98139.72
2023-02-24T21:13:56.758Z,98139.09
2023-02-24T21:18:01.540Z,98130.84
2023-02-24T21:22:04.170Z,98118.03
2023-02-24T21:26:11.686Z,98116.78
2023-02-24T21:30:19.959Z,98099.63
2023-02-24T21:34:24.821Z,98116.34
2023-02-24T21:38:35.775Z,98109.28
2023-02-24T21:42:58.327Z,98114.00
2023-02-24T21:47:02.838Z,98097.84
2023-02-24T21:51:09.954Z,98097.38
2023-02-24T21:55:12.380Z,98096.31
2023-02-24T21:59:14.426Z,98086.03
2023-02-24T22:03:21.635Z,98094.66
2023-02-24T22:07:28.407Z,98090.41
2023-02-24T22:11:36.406Z,98086.38
2023-02-24T22:15:41.914Z,98086.38
2023-02-24T22:19:45.142Z,98062.47
2023-02-24T22:23:52.668Z,98053.06
2023-02-24T22:27:58.920Z,98050.50
2023-02-24T22:32:03.823Z,98048.34
2023-02-24T22:36:17.784Z,98062.09
2023-02-24T22:40:20.816Z,98061.13
2023-02-24T22:44:26.521Z,98058.53
2023-02-24T22:48:32.214Z,98059.19
2023-02-24T22:52:33.999Z,98051.91
2023-02-24T22:56:35.809Z,98057.00
2023-02-24T23:00:46.047Z,98064.50
2023-02-24T23:04:47.984Z,98049.72
2023-02-24T23:08:50.712Z,98052.63
2023-02-24T23:12:53.103Z,98052.22
2023-02-24T23:16:55.909Z,98056.81
2023-02-24T23:21:03.279Z,98058.66
2023-02-24T23:25:09.623Z,98055.50
2023-02-24T23:29:13.047Z,98052.56
2023-02-24T23:33:15.289Z,98061.88
2023-02-24T23:37:17.604Z,98059.19
2023-02-24T23:41:19.433Z,98066.38
2023-02-24T23:45:21.311Z,98074.03
2023-02-24T23:49:23.248Z,98080.88
2023-02-24T23:53:25.407Z,98070.44
2023-02-24T23:57:27.554Z,98081.50
